createdAt,value
2018-01-05T00:02:03.278Z,3.82
2018-01-05T00:04:32.095Z,3.82
2018-01-05T00:07:00.992Z,3.88
2018-01-05T00:09:29.798Z,3.85
2018-01-05T00:11:58.739Z,3.82
2018-01-05T00:14:31.659Z,3.71
2018-01-05T00:17:00.547Z,3.65
2018-01-05T00:19:29.422Z,3.71
2018-01-05T00:21:59.250Z,3.68
2018-01-05T00:24:28.065Z,3.68
2018-01-05T00:26:56.982Z,3.78
2018-01-05T00:29:25.870Z,3.84
2018-01-05T00:31:54.778Z,3.89
2018-01-05T00:34:23.830Z,4.06
2018-01-05T00:36:53.484Z,4.15
2018-01-05T00:39:22.379Z,4.18
2018-01-05T00:41:51.294Z,4.18
2018-01-05T00:44:20.160Z,4.22
2018-01-05T00:46:49.066Z,4.35
2018-01-05T00:49:17.899Z,4.35
2018-01-05T00:51:49.183Z,4.30
2018-01-05T00:54:18.046Z,4.32
2018-01-05T00:56:46.973Z,4.36
2018-01-05T00:59:16.002Z,4.36
2018-01-05T01:01:44.864Z,4.31
2018-01-05T01:04:13.769Z,4.30
2018-01-05T01:06:42.853Z,4.33
2018-01-05T01:09:11.758Z,4.32
2018-01-05T01:11:40.621Z,4.32
2018-01-05T01:14:09.483Z,4.10
2018-01-05T01:16:38.326Z,4.04
2018-01-05T01:19:07.122Z,4.18
2018-01-05T01:21:35.981Z,4.31
2018-01-05T01:24:05.888Z,4.27
2018-01-05T01:26:34.769Z,4.29
2018-01-05T01:29:04.438Z,4.32
2018-01-05T01:31:33.237Z,4.34
2018-01-05T01:34:02.237Z,4.33
2018-01-05T01:36:31.099Z,4.27
2018-01-05T01:38:59.954Z,4.28
2018-01-05T01:41:29.835Z,4.21
2018-01-05T01:44:01.360Z,4.17
2018-01-05T01:46:31.205Z,4.08
2018-01-05T01:49:00.318Z,3.95
2018-01-05T01:51:29.199Z,3.90
2018-01-05T01:53:58.043Z,3.75
2018-01-05T01:56:26.915Z,3.77
2018-01-05T01:58:56.603Z,3.71
2018-01-05T02:01:25.474Z,3.71
2018-01-05T02:03:54.333Z,3.74
2018-01-05T02:06:24.869Z,3.75
2018-01-05T02:08:53.729Z,3.80
2018-01-05T02:11:22.544Z,3.87
2018-01-05T02:13:53.038Z,3.93
2018-01-05T02:16:21.894Z,3.94
2018-01-05T02:18:50.753Z,3.90
2018-01-05T02:21:22.151Z,3.89
2018-01-05T02:23:51.014Z,3.83
2018-01-05T02:26:19.861Z,3.82
2018-01-05T02:28:49.646Z,3.80
2018-01-05T02:31:18.523Z,3.76
2018-01-05T02:33:48.550Z,3.87
2018-01-05T02:36:17.420Z,3.93
2018-01-05T02:38:46.202Z,3.95
2018-01-05T02:41:15.065Z,3.94
2018-01-05T02:43:46.538Z,3.89
2018-01-05T02:46:15.450Z,3.69
2018-01-05T02:48:44.303Z,3.58
2018-01-05T02:51:16.889Z,3.55
2018-01-05T02:53:45.824Z,3.53
2018-01-05T02:56:14.624Z,3.53
2018-01-05T02:58:45.926Z,3.55
2018-01-05T03:01:14.825Z,3.52
2018-01-05T03:03:43.768Z,3.53
2018-01-05T03:06:14.948Z,3.54
2018-01-05T03:08:43.874Z,3.49
2018-01-05T03:11:12.753Z,3.46
2018-01-05T03:13:41.676Z,3.39
2018-01-05T03:16:10.545Z,3.29
2018-01-05T03:18:39.351Z,3.25
2018-01-05T03:21:12.504Z,3.22
2018-01-05T03:23:41.328Z,3.04
2018-01-05T03:26:10.157Z,3.03
2018-01-05T03:28:39.172Z,3.09
2018-01-05T03:31:07.999Z,3.19
2018-01-05T03:33:36.780Z,3.21
2018-01-05T03:36:06.551Z,3.28
2018-01-05T03:38:35.465Z,3.27
2018-01-05T03:41:06.056Z,3.28
2018-01-05T03:43:39.081Z,3.23
2018-01-05T03:46:08.831Z,3.22
2018-01-05T03:48:37.706Z,3.17
2018-01-05T03:51:06.641Z,3.15
2018-01-05T03:53:35.500Z,3.15
2018-01-05T03:56:04.481Z,3.12
2018-01-05T03:58:33.367Z,3.01
2018-01-05T04:01:02.266Z,3.00
2018-01-05T04:03:31.051Z,2.99
2018-01-05T04:05:59.944Z,3.04
2018-01-05T04:08:28.959Z,3.01
2018-01-05T04:10:57.868Z,2.97
2018-01-05T04:13:26.838Z,3.03
2018-01-05T04:15:56.028Z,3.04
2018-01-05T04:18:24.884Z,2.98
2018-01-05T04:20:53.889Z,2.95
2018-01-05T04:23:22.702Z,2.96
2018-01-05T04:25:51.532Z,2.89
2018-01-05T04:28:21.259Z,2.87
2018-01-05T04:30:50.098Z,2.85
2018-01-05T04:33:18.848Z,2.79
2018-01-05T04:35:47.717Z,2.79
2018-01-05T04:38:16.444Z,2.82
2018-01-05T04:40:45.342Z,2.83
2018-01-05T04:43:15.793Z,2.86
2018-01-05T04:45:44.631Z,2.79
2018-01-05T04:48:13.587Z,2.78
2018-01-05T04:50:42.462Z,2.77
2018-01-05T04:53:11.202Z,2.74
2018-01-05T04:55:39.945Z,2.72
2018-01-05T04:58:09.551Z,2.71
2018-01-05T05:00:38.460Z,2.69
2018-01-05T05:03:07.280Z,2.61
2018-01-05T05:05:36.207Z,2.65
2018-01-05T05:08:04.976Z,2.63
2018-01-05T05:10:33.761Z,2.63
2018-01-05T05:13:04.265Z,2.62
2018-01-05T05:15:33.061Z,2.57
2018-01-05T05:18:01.750Z,2.64
2018-01-05T05:20:30.592Z,2.68
2018-01-05T05:22:59.500Z,2.73
2018-01-05T05:25:28.396Z,2.71
2018-01-05T05:27:57.609Z,2.54
2018-01-05T05:30:26.298Z,2.52
2018-01-05T05:32:55.022Z,2.63
2018-01-05T05:35:23.776Z,2.73
2018-01-05T05:37:52.881Z,2.89
2018-01-05T05:40:21.606Z,3.09
2018-01-05T05:42:50.408Z,3.18
2018-01-05T05:45:19.158Z,3.27
2018-01-05T05:47:48.059Z,3.37
2018-01-05T05:52:51.408Z,3.34
2018-01-05T05:55:20.132Z,3.34
2018-01-05T05:57:48.950Z,3.35
2018-01-05T06:00:17.710Z,3.35
2018-01-05T06:02:50.156Z,3.35
2018-01-05T06:05:19.340Z,3.38
2018-01-05T06:07:48.365Z,3.47
2018-01-05T06:10:17.386Z,3.53
2018-01-05T06:12:46.329Z,3.60
2018-01-05T06:15:15.364Z,3.67
2018-01-05T06:17:44.410Z,3.67
2018-01-05T06:20:13.163Z,3.76
2018-01-05T06:22:41.909Z,3.79
2018-01-05T06:25:10.825Z,3.91
2018-01-05T06:27:39.673Z,3.96
2018-01-05T06:30:08.433Z,4.04
2018-01-05T06:32:38.334Z,4.15
2018-01-05T06:35:07.122Z,4.34
2018-01-05T06:37:35.863Z,4.47
2018-01-05T06:40:05.480Z,4.58
2018-01-05T06:42:34.402Z,4.69
2018-01-05T06:45:06.029Z,4.87
2018-01-05T06:47:36.642Z,4.89
2018-01-05T06:50:05.656Z,4.94
2018-01-05T06:52:34.568Z,5.03
2018-01-05T06:55:03.662Z,5.12
2018-01-05T06:57:33.732Z,5.19
2018-01-05T07:00:02.736Z,5.29
2018-01-05T07:02:31.756Z,5.38
2018-01-05T07:05:00.528Z,5.48
2018-01-05T07:07:29.682Z,5.55
2018-01-05T07:09:58.801Z,5.70
2018-01-05T07:12:27.732Z,5.82
2018-01-05T07:14:57.367Z,5.97
2018-01-05T07:17:27.756Z,6.11
2018-01-05T07:19:56.587Z,6.18
2018-01-05T07:22:25.400Z,6.31
2018-01-05T07:24:57.973Z,6.26
2018-01-05T07:27:26.756Z,6.27
2018-01-05T07:29:55.670Z,6.18
2018-01-05T07:32:24.616Z,6.31
2018-01-05T07:34:54.479Z,6.43
2018-01-05T07:37:23.578Z,6.57
2018-01-05T07:39:53.325Z,6.74
2018-01-05T07:42:23.068Z,6.98
2018-01-05T07:44:51.985Z,7.17
2018-01-05T07:47:21.849Z,7.31
2018-01-05T07:49:51.129Z,7.44
2018-01-05T07:52:20.432Z,7.51
2018-01-05T07:54:49.699Z,7.60
2018-01-05T07:57:19.678Z,7.70
2018-01-05T07:59:53.817Z,7.83
2018-01-05T08:02:23.849Z,7.99
2018-01-05T08:04:53.497Z,8.14
2018-01-05T08:07:23.788Z,8.23
2018-01-05T08:09:52.521Z,8.32
2018-01-05T08:12:21.400Z,8.35
2018-01-05T08:14:50.386Z,8.24
2018-01-05T08:17:19.156Z,8.27
2018-01-05T08:19:47.966Z,8.42
2018-01-05T08:22:19.236Z,8.47
2018-01-05T08:24:48.476Z,8.47
2018-01-05T08:27:18.263Z,8.50
2018-01-05T08:29:47.968Z,8.56
2018-01-05T08:32:16.938Z,8.71
2018-01-05T08:34:45.713Z,8.80
2018-01-05T08:37:16.560Z,8.83
2018-01-05T08:39:45.450Z,8.89
2018-01-05T08:42:14.303Z,8.96
2018-01-05T08:44:44.049Z,9.01
2018-01-05T08:47:16.119Z,9.13
2018-01-05T08:49:45.516Z,9.19
2018-01-05T08:52:14.478Z,9.18
2018-01-05T08:54:43.369Z,9.18
2018-01-05T08:57:14.052Z,9.20
2018-01-05T08:59:42.901Z,9.26
2018-01-05T09:02:13.752Z,9.28
2018-01-05T09:04:43.538Z,9.23
2018-01-05T09:07:14.781Z,9.24
2018-01-05T09:09:46.551Z,9.26
2018-01-05T09:12:15.420Z,9.35
2018-01-05T09:14:44.836Z,9.31
2018-01-05T09:17:19.099Z,9.30
2018-01-05T09:19:48.770Z,9.31
2018-01-05T09:22:19.672Z,9.29
2018-01-05T09:24:49.519Z,9.28
2018-01-05T09:27:18.419Z,9.31
2018-01-05T09:29:50.133Z,9.24
2018-01-05T09:32:19.027Z,9.27
2018-01-05T09:34:47.914Z,9.25
2018-01-05T09:37:17.630Z,9.22
2018-01-05T09:39:47.335Z,9.26
2018-01-05T09:42:16.633Z,9.14
2018-01-05T09:44:45.735Z,9.21
2018-01-05T09:47:14.621Z,9.21
2018-01-05T09:49:43.625Z,9.27
2018-01-05T09:52:13.399Z,9.25
2018-01-05T09:54:42.420Z,9.30
2018-01-05T09:57:11.507Z,9.16
2018-01-05T09:59:41.978Z,9.21
2018-01-05T10:02:11.737Z,9.11
2018-01-05T10:04:40.852Z,9.17
2018-01-05T10:07:11.256Z,9.23
2018-01-05T10:09:40.832Z,9.25
2018-01-05T10:12:09.787Z,9.24
2018-01-05T10:14:39.631Z,9.34
2018-01-05T10:17:09.105Z,9.37
2018-01-05T10:19:38.001Z,9.36
2018-01-05T10:22:07.187Z,9.28
2018-01-05T10:24:36.844Z,9.34
2018-01-05T10:27:06.972Z,9.33
2018-01-05T10:29:39.294Z,9.43
2018-01-05T10:32:09.146Z,9.48
2018-01-05T10:34:38.100Z,9.47
2018-01-05T10:37:09.830Z,9.55
2018-01-05T10:39:38.755Z,9.56
2018-01-05T10:42:08.301Z,9.52
2018-01-05T10:44:38.282Z,9.58
2018-01-05T10:47:08.838Z,9.66
2018-01-05T10:49:37.798Z,9.66
2018-01-05T10:52:08.324Z,9.72
2018-01-05T10:54:37.360Z,9.79
2018-01-05T10:57:08.107Z,9.78
2018-01-05T10:59:38.174Z,9.85
2018-01-05T11:02:07.143Z,9.92
2018-01-05T11:04:36.062Z,9.94
2018-01-05T11:07:07.026Z,9.95
2018-01-05T11:09:35.988Z,9.93
2018-01-05T11:12:05.704Z,9.92
2018-01-05T11:14:34.566Z,9.95
2018-01-05T11:17:04.507Z,9.96
2018-01-05T11:19:34.265Z,10.01
2018-01-05T11:22:04.941Z,10.09
2018-01-05T11:24:33.882Z,10.11
2018-01-05T11:27:03.865Z,10.08
2018-01-05T11:29:32.810Z,10.09
2018-01-05T11:32:02.466Z,10.12
2018-01-05T11:34:31.464Z,10.06
2018-01-05T11:37:01.284Z,10.04
2018-01-05T11:39:31.893Z,10.10
2018-01-05T11:42:01.618Z,10.09
2018-01-05T11:44:34.189Z,10.14
2018-01-05T11:47:03.345Z,10.20
2018-01-05T11:49:32.182Z,10.26
2018-01-05T11:52:07.753Z,10.24
2018-01-05T11:54:36.615Z,10.27
2018-01-05T11:57:06.532Z,10.31
2018-01-05T11:59:40.345Z,10.33
2018-01-05T12:02:09.333Z,10.35
2018-01-05T12:04:38.596Z,10.36
2018-01-05T12:07:09.470Z,10.39
2018-01-05T12:09:38.366Z,10.45
2018-01-05T12:12:07.256Z,10.49
2018-01-05T12:14:37.172Z,10.49
2018-01-05T12:17:06.171Z,10.45
2018-01-05T12:19:35.091Z,10.50
2018-01-05T12:22:04.203Z,10.55
2018-01-05T12:24:33.195Z,10.54
2018-01-05T12:27:02.895Z,10.43
2018-01-05T12:29:31.942Z,10.36
2018-01-05T12:32:01.869Z,10.17
2018-01-05T12:34:31.046Z,9.99
2018-01-05T12:37:00.914Z,9.86
2018-01-05T12:39:29.899Z,9.72
2018-01-05T12:41:59.789Z,9.45
2018-01-05T12:44:29.185Z,9.40
2018-01-05T12:46:59.975Z,9.35
2018-01-05T12:49:32.390Z,9.27
2018-01-05T12:52:01.334Z,9.15
2018-01-05T12:54:31.268Z,9.19
2018-01-05T12:57:01.605Z,9.17
2018-01-05T12:59:30.629Z,9.19
2018-01-05T13:02:00.543Z,9.20
2018-01-05T13:04:29.743Z,9.28
2018-01-05T13:06:58.838Z,9.33
2018-01-05T13:09:27.851Z,9.34
2018-01-05T13:11:58.588Z,9.35
2018-01-05T13:14:27.521Z,9.31
2018-01-05T13:16:56.402Z,9.29
2018-01-05T13:19:27.311Z,9.26
2018-01-05T13:21:56.278Z,9.32
2018-01-05T13:24:26.311Z,9.39
2018-01-05T13:26:57.253Z,9.31
2018-01-05T13:29:27.252Z,9.35
2018-01-05T13:31:56.370Z,9.41
2018-01-05T13:34:25.618Z,9.43
2018-01-05T13:36:55.425Z,9.47
2018-01-05T13:39:25.738Z,9.46
2018-01-05T13:41:55.560Z,9.26
2018-01-05T13:44:24.613Z,9.17
2018-01-05T13:46:53.605Z,9.11
2018-01-05T13:49:23.654Z,9.10
2018-01-05T13:51:52.615Z,9.02
2018-01-05T13:54:21.815Z,8.92
2018-01-05T13:56:51.940Z,8.88
2018-01-05T13:59:20.930Z,8.88
2018-01-05T14:01:49.857Z,8.87
2018-01-05T14:04:20.559Z,8.88
2018-01-05T14:06:50.277Z,8.88
2018-01-05T14:09:20.184Z,8.91
2018-01-05T14:11:50.187Z,8.80
2018-01-05T14:14:20.579Z,8.75
2018-01-05T14:16:49.658Z,8.69
2018-01-05T14:19:20.355Z,8.70
2018-01-05T14:21:49.395Z,8.66
2018-01-05T14:24:18.581Z,8.63
2018-01-05T14:26:52.956Z,8.56
2018-01-05T14:29:21.947Z,8.48
2018-01-05T14:31:51.930Z,8.41
2018-01-05T14:34:21.015Z,8.27
2018-01-05T14:36:50.001Z,8.10
2018-01-05T14:39:18.969Z,8.04
2018-01-05T14:41:48.510Z,8.00
2018-01-05T14:44:17.469Z,7.97
2018-01-05T14:46:46.767Z,8.00
2018-01-05T14:49:15.845Z,8.04
2018-01-05T14:51:46.783Z,8.08
2018-01-05T14:54:17.789Z,8.08
2018-01-05T14:56:46.775Z,8.11
2018-01-05T14:59:16.560Z,8.09
2018-01-05T15:01:46.494Z,8.09
2018-01-05T15:04:15.599Z,8.08
2018-01-05T15:06:45.372Z,8.08
2018-01-05T15:09:16.979Z,8.05
2018-01-05T15:11:46.012Z,8.02
2018-01-05T15:14:15.009Z,8.02
2018-01-05T15:16:45.743Z,7.99
2018-01-05T15:19:14.976Z,7.96
2018-01-05T15:21:44.040Z,7.92
2018-01-05T15:24:13.032Z,7.90
2018-01-05T15:26:42.010Z,7.90
2018-01-05T15:29:12.877Z,7.86
2018-01-05T15:31:43.409Z,7.83
2018-01-05T15:34:13.356Z,7.85
2018-01-05T15:36:43.384Z,7.86
2018-01-05T15:39:14.061Z,7.80
2018-01-05T15:41:43.545Z,7.75
2018-01-05T15:44:17.905Z,7.74
2018-01-05T15:46:47.086Z,7.68
2018-01-05T15:49:16.732Z,7.60
2018-01-05T15:51:46.660Z,7.56
2018-01-05T15:54:16.564Z,7.45
2018-01-05T15:56:45.494Z,7.43
2018-01-05T15:59:15.418Z,7.40
2018-01-05T16:01:44.548Z,7.35
2018-01-05T16:04:13.632Z,7.36
2018-01-05T16:06:42.723Z,7.31
2018-01-05T16:09:11.823Z,7.25
2018-01-05T16:11:41.891Z,7.31
2018-01-05T16:14:14.267Z,7.30
2018-01-05T16:16:43.564Z,7.26
2018-01-05T16:19:12.430Z,7.22
2018-01-05T16:21:41.743Z,7.19
2018-01-05T16:24:11.825Z,7.16
2018-01-05T16:26:43.336Z,7.12
2018-01-05T16:29:12.281Z,7.04
2018-01-05T16:31:42.236Z,6.98
2018-01-05T16:34:11.292Z,6.98
2018-01-05T16:36:40.474Z,6.99
2018-01-05T16:39:09.990Z,7.03
2018-01-05T16:41:41.640Z,6.96
2018-01-05T16:44:11.515Z,6.98
2018-01-05T16:46:40.589Z,6.96
2018-01-05T16:49:11.220Z,6.90
2018-01-05T16:51:40.238Z,6.89
2018-01-05T16:54:10.251Z,6.93
2018-01-05T16:56:40.198Z,6.83
2018-01-05T16:59:09.868Z,6.84
2018-01-05T17:01:38.904Z,6.89
2018-01-05T17:04:08.771Z,6.96
2018-01-05T17:06:37.879Z,7.11
2018-01-05T17:09:07.915Z,7.31
2018-01-05T17:11:38.182Z,7.58
2018-01-05T17:14:07.819Z,7.74
2018-01-05T17:16:38.768Z,7.88
2018-01-05T17:19:08.614Z,7.94
2018-01-05T17:21:37.498Z,8.07
2018-01-05T17:24:06.827Z,8.15
2018-01-05T17:26:37.002Z,8.17
2018-01-05T17:29:06.902Z,8.21
2018-01-05T17:31:35.901Z,8.29
2018-01-05T17:34:04.992Z,8.36
2018-01-05T17:36:34.195Z,8.42
2018-01-05T17:39:04.178Z,8.44
2018-01-05T17:41:33.027Z,8.44
2018-01-05T17:44:01.914Z,8.40
2018-01-05T17:46:30.786Z,8.37
2018-01-05T17:48:59.725Z,8.36
2018-01-05T17:51:28.576Z,8.36
2018-01-05T17:53:57.509Z,8.37
2018-01-05T17:56:26.308Z,8.32
2018-01-05T17:58:55.208Z,8.34
2018-01-05T18:01:28.307Z,8.31
2018-01-05T18:03:57.197Z,8.28
2018-01-05T18:06:26.013Z,8.28
2018-01-05T18:08:55.084Z,8.25
2018-01-05T18:11:23.943Z,8.22
2018-01-05T18:13:52.769Z,8.26
2018-01-05T18:16:21.693Z,8.23
2018-01-05T18:18:50.646Z,8.16
2018-01-05T18:21:19.481Z,8.06
2018-01-05T18:23:48.733Z,8.05
2018-01-05T18:26:17.558Z,7.97
2018-01-05T18:28:46.484Z,7.95
2018-01-05T18:31:15.400Z,7.94
2018-01-05T18:33:44.346Z,7.90
2018-01-05T18:36:13.217Z,7.93
2018-01-05T18:38:42.202Z,7.92
2018-01-05T18:41:11.098Z,7.95
2018-01-05T18:43:40.095Z,7.92
2018-01-05T18:46:12.288Z,7.97
2018-01-05T18:48:42.391Z,7.93
2018-01-05T18:51:11.521Z,7.80
2018-01-05T18:53:45.005Z,7.74
2018-01-05T18:56:15.219Z,7.76
2018-01-05T18:58:44.277Z,7.80
2018-01-05T19:01:13.440Z,7.76
2018-01-05T19:03:42.436Z,7.81
2018-01-05T19:06:11.260Z,7.81
2018-01-05T19:08:40.178Z,7.79
2018-01-05T19:11:09.140Z,7.75
2018-01-05T19:13:37.924Z,7.67
2018-01-05T19:16:06.791Z,7.64
2018-01-05T19:18:35.562Z,7.59
2018-01-05T19:21:04.479Z,7.59
2018-01-05T19:23:34.944Z,7.58
2018-01-05T19:26:03.792Z,7.59
2018-01-05T19:28:32.750Z,7.51
2018-01-05T19:31:01.654Z,7.44
2018-01-05T19:33:30.502Z,7.35
2018-01-05T19:35:59.431Z,7.34
2018-01-05T19:38:29.192Z,7.31
2018-01-05T19:40:58.041Z,7.34
2018-01-05T19:43:26.981Z,7.37
2018-01-05T19:45:58.641Z,7.22
2018-01-05T19:48:27.625Z,7.06
2018-01-05T19:50:56.464Z,7.04
2018-01-05T19:53:26.541Z,6.97
2018-01-05T19:55:55.380Z,6.90
2018-01-05T19:58:24.221Z,6.80
2018-01-05T20:00:55.083Z,6.74
2018-01-05T20:03:23.979Z,6.62
2018-01-05T20:05:52.915Z,6.51
2018-01-05T20:08:21.981Z,6.42
2018-01-05T20:10:50.798Z,6.35
2018-01-05T20:13:19.595Z,6.23
2018-01-05T20:15:48.634Z,6.03
2018-01-05T20:18:17.498Z,5.99
2018-01-05T20:20:46.504Z,5.93
2018-01-05T20:23:18.259Z,5.92
2018-01-05T20:25:47.638Z,5.93
2018-01-05T20:28:16.573Z,5.84
2018-01-05T20:30:45.920Z,5.71
2018-01-05T20:33:14.789Z,5.65
2018-01-05T20:35:43.744Z,5.59
2018-01-05T20:38:17.107Z,5.52
2018-01-05T20:40:46.608Z,5.47
2018-01-05T20:43:18.004Z,5.42
2018-01-05T20:45:50.491Z,5.38
2018-01-05T20:48:19.390Z,5.35
2018-01-05T20:50:48.276Z,5.25
2018-01-05T20:53:19.071Z,5.23
2018-01-05T20:55:54.616Z,5.52
2018-01-05T20:58:24.795Z,5.60
2018-01-05T21:00:54.284Z,5.66
2018-01-05T21:03:23.813Z,5.67
2018-01-05T21:05:52.654Z,5.67
2018-01-05T21:08:21.526Z,5.76
2018-01-05T21:10:50.444Z,5.79
2018-01-05T21:13:20.220Z,5.80
2018-01-05T21:15:49.142Z,5.81
2018-01-05T21:18:17.925Z,5.78
2018-01-05T21:20:49.227Z,5.72
2018-01-05T21:23:18.111Z,5.58
2018-01-05T21:25:46.981Z,5.53
2018-01-05T21:28:16.642Z,5.51
2018-01-05T21:30:46.173Z,5.47
2018-01-05T21:33:15.354Z,5.35
2018-01-05T21:35:45.920Z,5.25
2018-01-05T21:38:14.848Z,5.21
2018-01-05T21:40:43.732Z,5.20
2018-01-05T21:43:14.393Z,5.20
2018-01-05T21:45:43.205Z,5.15
2018-01-05T21:48:12.103Z,5.12
2018-01-05T21:50:42.569Z,5.10
2018-01-05T21:53:11.817Z,5.14
2018-01-05T21:55:40.954Z,5.12
2018-01-05T21:58:10.373Z,5.08
2018-01-05T22:00:39.558Z,5.07
2018-01-05T22:03:08.458Z,5.11
2018-01-05T22:05:38.704Z,5.14
2018-01-05T22:08:07.577Z,5.14
2018-01-05T22:10:36.476Z,5.13
2018-01-05T22:13:08.067Z,5.12
2018-01-05T22:15:37.015Z,5.12
2018-01-05T22:18:05.834Z,5.07
2018-01-05T22:20:37.201Z,5.03
2018-01-05T22:23:06.139Z,4.99
2018-01-05T22:25:35.053Z,4.96
2018-01-05T22:28:03.921Z,4.95
2018-01-05T22:30:32.787Z,4.98
2018-01-05T22:33:01.695Z,4.95
2018-01-05T22:35:30.610Z,4.95
2018-01-05T22:37:59.492Z,4.92
2018-01-05T22:40:28.312Z,4.90
2018-01-05T22:43:02.539Z,4.87
2018-01-05T22:45:31.357Z,4.87
2018-01-05T22:48:00.261Z,4.84
2018-01-05T22:50:30.773Z,4.83
2018-01-05T22:52:59.703Z,4.86
2018-01-05T22:55:28.591Z,4.86
2018-01-05T22:57:58.246Z,4.81
2018-01-05T23:00:27.182Z,4.80
2018-01-05T23:02:56.507Z,4.75
2018-01-05T23:05:27.031Z,4.69
2018-01-05T23:07:57.334Z,4.63
2018-01-05T23:10:26.355Z,4.58
2018-01-05T23:12:56.175Z,4.55
2018-01-05T23:15:24.990Z,4.55
2018-01-05T23:17:53.865Z,4.57
2018-01-05T23:20:26.192Z,4.68
2018-01-05T23:22:55.042Z,4.74
2018-01-05T23:25:25.565Z,4.74
2018-01-05T23:27:55.820Z,4.75
2018-01-05T23:30:26.369Z,4.79
2018-01-05T23:32:55.245Z,4.78
2018-01-05T23:35:25.772Z,4.81
2018-01-05T23:37:56.215Z,4.85
2018-01-05T23:40:26.955Z,4.79
2018-01-05T23:42:57.274Z,4.73
2018-01-05T23:45:27.023Z,4.75
2018-01-05T23:47:56.553Z,4.73
2018-01-05T23:50:26.317Z,4.72
2018-01-05T23:52:55.960Z,4.73
2018-01-05T23:55:27.426Z,4.80
2018-01-05T23:58:00.785Z,4.85
